sensor_id;sensor_type;location;lat;lon;timestamp;P1;durP1;ratioP1;P2;durP2;ratioP2
23046;SDS011;11691;51.462;6.902;2023-06-04T00:02:04;2.38;;;1.45;;
23046;SDS011;11691;51.462;6.902;2023-06-04T00:04:30;1.95;;;1.30;;
23046;SDS011;11691;51.462;6.902;2023-06-04T00:06:56;1.55;;;1.13;;
23046;SDS011;11691;51.462;6.902;2023-06-04T00:09:21;2.60;;;1.52;;
23046;SDS011;11691;51.462;6.902;2023-06-04T00:11:47;2.30;;;1.40;;
23046;SDS011;11691;51.462;6.902;2023-06-04T00:14:14;2.45;;;1.45;;
23046;SDS011;11691;51.462;6.902;2023-06-04T00:16:40;3.33;;;1.38;;
23046;SDS011;11691;51.462;6.902;2023-06-04T00:19:06;3.78;;;1.50;;
23046;SDS011;11691;51.462;6.902;2023-06-04T00:21:32;2.17;;;1.48;;
23046;SDS011;11691;51.462;6.902;2023-06-04T00:23:59;5.05;;;1.42;;
23046;SDS011;11691;51.462;6.902;2023-06-04T00:26:25;2.67;;;1.30;;
23046;SDS011;11691;51.462;6.902;2023-06-04T00:28:50;1.77;;;1.23;;
23046;SDS011;11691;51.462;6.902;2023-06-04T00:31:16;2.95;;;1.52;;
23046;SDS011;11691;51.462;6.902;2023-06-04T00:33:42;2.72;;;1.60;;
23046;SDS011;11691;51.462;6.902;2023-06-04T00:36:08;4.07;;;1.33;;
23046;SDS011;11691;51.462;6.902;2023-06-04T00:38:34;1.80;;;1.42;;
23046;SDS011;11691;51.462;6.902;2023-06-04T00:41:00;2.90;;;1.33;;
23046;SDS011;11691;51.462;6.902;2023-06-04T00:43:26;3.75;;;1.38;;
23046;SDS011;11691;51.462;6.902;2023-06-04T00:45:52;2.83;;;1.30;;
23046;SDS011;11691;51.462;6.902;2023-06-04T00:48:19;2.78;;;1.02;;
23046;SDS011;11691;51.462;6.902;2023-06-04T00:50:45;4.55;;;1.10;;
23046;SDS011;11691;51.462;6.902;2023-06-04T00:53:12;2.08;;;1.17;;
23046;SDS011;11691;51.462;6.902;2023-06-04T00:55:38;1.70;;;1.20;;
23046;SDS011;11691;51.462;6.902;2023-06-04T00:58:03;2.13;;;1.15;;
23046;SDS011;11691;51.462;6.902;2023-06-04T01:00:30;3.08;;;1.40;;
23046;SDS011;11691;51.462;6.902;2023-06-04T01:02:57;4.55;;;1.27;;
23046;SDS011;11691;51.462;6.902;2023-06-04T01:08:02;4.38;;;1.20;;
23046;SDS011;11691;51.462;6.902;2023-06-04T01:10:30;3.28;;;1.25;;
23046;SDS011;11691;51.462;6.902;2023-06-04T01:12:56;2.97;;;1.33;;
23046;SDS011;11691;51.462;6.902;2023-06-04T01:15:22;2.25;;;1.10;;
23046;SDS011;11691;51.462;6.902;2023-06-04T01:17:49;3.38;;;1.10;;
23046;SDS011;11691;51.462;6.902;2023-06-04T01:25:24;6.28;;;1.30;;
23046;SDS011;11691;51.462;6.902;2023-06-04T01:28:02;1.88;;;1.02;;
23046;SDS011;11691;51.462;6.902;2023-06-04T01:30:30;3.15;;;1.38;;
23046;SDS011;11691;51.462;6.902;2023-06-04T01:32:57;10.20;;;1.98;;
23046;SDS011;11691;51.462;6.902;2023-06-04T01:35:27;1.63;;;1.10;;
23046;SDS011;11691;51.462;6.902;2023-06-04T01:37:54;1.80;;;1.27;;
23046;SDS011;11691;51.462;6.902;2023-06-04T01:40:20;2.03;;;1.20;;
23046;SDS011;11691;51.462;6.902;2023-06-04T01:42:46;2.40;;;1.30;;
23046;SDS011;11691;51.462;6.902;2023-06-04T01:45:12;2.22;;;1.40;;
23046;SDS011;11691;51.462;6.902;2023-06-04T01:47:38;3.83;;;1.80;;
23046;SDS011;11691;51.462;6.902;2023-06-04T01:50:04;3.30;;;1.17;;
23046;SDS011;11691;51.462;6.902;2023-06-04T01:52:34;4.00;;;1.48;;
23046;SDS011;11691;51.462;6.902;2023-06-04T01:55:00;2.88;;;1.00;;
23046;SDS011;11691;51.462;6.902;2023-06-04T01:57:26;1.48;;;0.90;;
23046;SDS011;11691;51.462;6.902;2023-06-04T01:59:52;2.08;;;1.20;;
23046;SDS011;11691;51.462;6.902;2023-06-04T02:02:18;1.85;;;1.20;;
23046;SDS011;11691;51.462;6.902;2023-06-04T02:04:44;2.33;;;1.33;;
23046;SDS011;11691;51.462;6.902;2023-06-04T02:07:10;2.08;;;1.15;;
23046;SDS011;11691;51.462;6.902;2023-06-04T02:09:42;2.90;;;1.17;;
23046;SDS011;11691;51.462;6.902;2023-06-04T02:12:08;3.15;;;1.35;;
23046;SDS011;11691;51.462;6.902;2023-06-04T02:14:34;2.05;;;1.50;;
23046;SDS011;11691;51.462;6.902;2023-06-04T02:17:00;3.10;;;1.40;;
23046;SDS011;11691;51.462;6.902;2023-06-04T02:19:26;2.25;;;1.15;;
23046;SDS011;11691;51.462;6.902;2023-06-04T02:21:52;5.55;;;1.65;;
23046;SDS011;11691;51.462;6.902;2023-06-04T02:24:18;2.83;;;1.40;;
23046;SDS011;11691;51.462;6.902;2023-06-04T02:26:44;2.15;;;1.38;;
23046;SDS011;11691;51.462;6.902;2023-06-04T02:29:11;2.67;;;1.63;;
23046;SDS011;11691;51.462;6.902;2023-06-04T02:31:37;3.00;;;1.55;;
23046;SDS011;11691;51.462;6.902;2023-06-04T02:34:02;1.95;;;1.10;;
23046;SDS011;11691;51.462;6.902;2023-06-04T02:36:29;2.30;;;1.40;;
23046;SDS011;11691;51.462;6.902;2023-06-04T02:38:55;1.63;;;1.33;;
23046;SDS011;11691;51.462;6.902;2023-06-04T02:41:21;1.90;;;1.40;;
23046;SDS011;11691;51.462;6.902;2023-06-04T02:43:47;5.45;;;1.63;;
23046;SDS011;11691;51.462;6.902;2023-06-04T02:46:13;3.70;;;1.48;;
23046;SDS011;11691;51.462;6.902;2023-06-04T02:48:39;4.30;;;1.48;;
23046;SDS011;11691;51.462;6.902;2023-06-04T02:51:05;2.47;;;1.58;;
23046;SDS011;11691;51.462;6.902;2023-06-04T02:53:35;3.88;;;1.55;;
23046;SDS011;11691;51.462;6.902;2023-06-04T02:56:00;2.67;;;1.50;;
23046;SDS011;11691;51.462;6.902;2023-06-04T02:58:26;3.97;;;1.40;;
23046;SDS011;11691;51.462;6.902;2023-06-04T03:00:54;3.22;;;1.80;;
23046;SDS011;11691;51.462;6.902;2023-06-04T03:03:20;3.30;;;1.60;;
23046;SDS011;11691;51.462;6.902;2023-06-04T03:05:46;3.85;;;1.73;;
23046;SDS011;11691;51.462;6.902;2023-06-04T03:08:13;3.15;;;1.75;;
23046;SDS011;11691;51.462;6.902;2023-06-04T03:10:39;2.67;;;1.50;;
23046;SDS011;11691;51.462;6.902;2023-06-04T03:13:05;1.90;;;1.40;;
23046;SDS011;11691;51.462;6.902;2023-06-04T03:15:31;3.38;;;1.38;;
23046;SDS011;11691;51.462;6.902;2023-06-04T03:17:57;2.78;;;1.60;;
23046;SDS011;11691;51.462;6.902;2023-06-04T03:20:23;3.72;;;1.73;;
23046;SDS011;11691;51.462;6.902;2023-06-04T03:22:49;3.28;;;1.52;;
23046;SDS011;11691;51.462;6.902;2023-06-04T03:25:15;4.40;;;1.85;;
23046;SDS011;11691;51.462;6.902;2023-06-04T03:27:41;3.75;;;1.80;;
23046;SDS011;11691;51.462;6.902;2023-06-04T03:30:07;5.78;;;2.08;;
23046;SDS011;11691;51.462;6.902;2023-06-04T03:32:34;5.70;;;2.22;;
23046;SDS011;11691;51.462;6.902;2023-06-04T03:35:00;3.20;;;1.92;;
23046;SDS011;11691;51.462;6.902;2023-06-04T03:37:26;3.40;;;1.88;;
23046;SDS011;11691;51.462;6.902;2023-06-04T03:39:52;3.22;;;1.73;;
23046;SDS011;11691;51.462;6.902;2023-06-04T03:42:18;3.92;;;2.13;;
23046;SDS011;11691;51.462;6.902;2023-06-04T03:44:44;4.00;;;2.10;;
23046;SDS011;11691;51.462;6.902;2023-06-04T03:47:11;3.63;;;2.28;;
23046;SDS011;11691;51.462;6.902;2023-06-04T03:49:36;4.68;;;2.20;;
23046;SDS011;11691;51.462;6.902;2023-06-04T03:52:02;3.38;;;2.20;;
23046;SDS011;11691;51.462;6.902;2023-06-04T03:54:28;4.45;;;2.05;;
23046;SDS011;11691;51.462;6.902;2023-06-04T03:56:55;3.33;;;1.92;;
23046;SDS011;11691;51.462;6.902;2023-06-04T03:59:21;3.55;;;1.90;;
23046;SDS011;11691;51.462;6.902;2023-06-04T04:01:47;3.08;;;1.70;;
23046;SDS011;11691;51.462;6.902;2023-06-04T04:04:13;6.47;;;2.10;;
23046;SDS011;11691;51.462;6.902;2023-06-04T04:06:38;3.65;;;2.30;;
23046;SDS011;11691;51.462;6.902;2023-06-04T04:09:05;4.38;;;2.55;;
23046;SDS011;11691;51.462;6.902;2023-06-04T04:11:31;4.22;;;2.40;;
23046;SDS011;11691;51.462;6.902;2023-06-04T04:13:57;5.00;;;2.35;;
23046;SDS011;11691;51.462;6.902;2023-06-04T04:16:23;5.03;;;2.42;;
23046;SDS011;11691;51.462;6.902;2023-06-04T04:18:49;6.22;;;1.90;;
23046;SDS011;11691;51.462;6.902;2023-06-04T04:21:15;4.38;;;2.30;;
23046;SDS011;11691;51.462;6.902;2023-06-04T04:23:41;5.68;;;2.42;;
23046;SDS011;11691;51.462;6.902;2023-06-04T04:26:08;3.00;;;1.75;;
23046;SDS011;11691;51.462;6.902;2023-06-04T04:28:35;2.65;;;1.55;;
23046;SDS011;11691;51.462;6.902;2023-06-04T04:31:01;5.72;;;2.10;;
23046;SDS011;11691;51.462;6.902;2023-06-04T04:33:27;5.20;;;2.20;;
23046;SDS011;11691;51.462;6.902;2023-06-04T04:35:57;2.83;;;1.67;;
23046;SDS011;11691;51.462;6.902;2023-06-04T04:38:24;3.10;;;2.05;;
23046;SDS011;11691;51.462;6.902;2023-06-04T04:40:51;4.20;;;1.77;;
23046;SDS011;11691;51.462;6.902;2023-06-04T04:45:55;4.30;;;1.98;;
23046;SDS011;11691;51.462;6.902;2023-06-04T04:48:21;6.00;;;2.40;;
23046;SDS011;11691;51.462;6.902;2023-06-04T04:50:47;5.90;;;2.13;;
23046;SDS011;11691;51.462;6.902;2023-06-04T04:53:13;5.50;;;2.20;;
23046;SDS011;11691;51.462;6.902;2023-06-04T04:55:39;3.97;;;2.05;;
23046;SDS011;11691;51.462;6.902;2023-06-04T04:58:05;3.63;;;1.58;;
23046;SDS011;11691;51.462;6.902;2023-06-04T05:00:32;2.67;;;1.85;;
23046;SDS011;11691;51.462;6.902;2023-06-04T05:02:57;4.97;;;2.25;;
23046;SDS011;11691;51.462;6.902;2023-06-04T05:05:23;3.55;;;2.08;;
23046;SDS011;11691;51.462;6.902;2023-06-04T05:07:49;4.30;;;1.90;;
23046;SDS011;11691;51.462;6.902;2023-06-04T05:10:16;4.03;;;1.85;;
23046;SDS011;11691;51.462;6.902;2023-06-04T05:12:52;3.28;;;1.90;;
23046;SDS011;11691;51.462;6.902;2023-06-04T05:15:19;3.42;;;1.95;;
23046;SDS011;11691;51.462;6.902;2023-06-04T05:17:45;5.18;;;1.90;;
23046;SDS011;11691;51.462;6.902;2023-06-04T05:20:11;4.80;;;1.98;;
23046;SDS011;11691;51.462;6.902;2023-06-04T05:22:38;3.28;;;1.95;;
23046;SDS011;11691;51.462;6.902;2023-06-04T05:25:04;3.78;;;2.08;;
23046;SDS011;11691;51.462;6.902;2023-06-04T05:27:33;4.82;;;1.85;;
23046;SDS011;11691;51.462;6.902;2023-06-04T05:30:00;2.33;;;1.80;;
23046;SDS011;11691;51.462;6.902;2023-06-04T05:32:27;3.45;;;1.98;;
23046;SDS011;11691;51.462;6.902;2023-06-04T05:34:57;5.25;;;2.08;;
23046;SDS011;11691;51.462;6.902;2023-06-04T05:37:26;6.25;;;2.47;;
23046;SDS011;11691;51.462;6.902;2023-06-04T05:39:53;2.78;;;1.83;;
23046;SDS011;11691;51.462;6.902;2023-06-04T05:42:20;3.92;;;1.90;;
23046;SDS011;11691;51.462;6.902;2023-06-04T05:44:46;6.50;;;1.98;;
23046;SDS011;11691;51.462;6.902;2023-06-04T05:47:13;4.05;;;1.80;;
23046;SDS011;11691;51.462;6.902;2023-06-04T05:49:39;3.92;;;1.92;;
23046;SDS011;11691;51.462;6.902;2023-06-04T05:52:05;5.38;;;1.75;;
23046;SDS011;11691;51.462;6.902;2023-06-04T05:54:31;3.90;;;2.08;;
23046;SDS011;11691;51.462;6.902;2023-06-04T05:56:57;3.80;;;2.13;;
23046;SDS011;11691;51.462;6.902;2023-06-04T05:59:23;3.38;;;2.00;;
23046;SDS011;11691;51.462;6.902;2023-06-04T06:01:49;4.03;;;2.00;;
23046;SDS011;11691;51.462;6.902;2023-06-04T06:04:15;3.08;;;1.90;;
23046;SDS011;11691;51.462;6.902;2023-06-04T06:06:42;3.92;;;1.80;;
23046;SDS011;11691;51.462;6.902;2023-06-04T06:09:09;4.47;;;2.03;;
23046;SDS011;11691;51.462;6.902;2023-06-04T06:11:35;4.25;;;2.28;;
23046;SDS011;11691;51.462;6.902;2023-06-04T06:14:01;4.53;;;1.92;;
23046;SDS011;11691;51.462;6.902;2023-06-04T06:16:27;3.17;;;2.10;;
23046;SDS011;11691;51.462;6.902;2023-06-04T06:18:53;2.83;;;1.80;;
23046;SDS011;11691;51.462;6.902;2023-06-04T06:21:19;3.17;;;1.83;;
23046;SDS011;11691;51.462;6.902;2023-06-04T06:23:45;4.18;;;1.65;;
23046;SDS011;11691;51.462;6.902;2023-06-04T06:26:11;4.15;;;1.88;;
23046;SDS011;11691;51.462;6.902;2023-06-04T06:28:38;2.78;;;2.03;;
23046;SDS011;11691;51.462;6.902;2023-06-04T06:31:04;3.08;;;2.05;;
23046;SDS011;11691;51.462;6.902;2023-06-04T06:33:30;4.30;;;2.53;;
23046;SDS011;11691;51.462;6.902;2023-06-04T06:35:56;4.55;;;2.47;;
23046;SDS011;11691;51.462;6.902;2023-06-04T06:38:25;2.88;;;1.70;;
23046;SDS011;11691;51.462;6.902;2023-06-04T06:40:51;3.63;;;2.42;;
23046;SDS011;11691;51.462;6.902;2023-06-04T06:43:17;5.80;;;2.10;;
23046;SDS011;11691;51.462;6.902;2023-06-04T06:45:43;5.35;;;2.03;;
23046;SDS011;11691;51.462;6.902;2023-06-04T06:48:09;3.03;;;1.73;;
23046;SDS011;11691;51.462;6.902;2023-06-04T06:50:35;4.20;;;1.88;;
23046;SDS011;11691;51.462;6.902;2023-06-04T06:53:02;7.78;;;3.13;;
23046;SDS011;11691;51.462;6.902;2023-06-04T06:55:28;4.47;;;1.80;;
23046;SDS011;11691;51.462;6.902;2023-06-04T06:57:54;9.60;;;2.20;;
23046;SDS011;11691;51.462;6.902;2023-06-04T07:00:20;2.95;;;2.10;;
23046;SDS011;11691;51.462;6.902;2023-06-04T07:02:46;4.55;;;1.90;;
23046;SDS011;11691;51.462;6.902;2023-06-04T07:05:13;3.05;;;1.95;;
23046;SDS011;11691;51.462;6.902;2023-06-04T07:07:40;3.30;;;1.70;;
23046;SDS011;11691;51.462;6.902;2023-06-04T07:10:06;4.63;;;1.48;;
23046;SDS011;11691;51.462;6.902;2023-06-04T07:12:32;3.15;;;1.58;;
23046;SDS011;11691;51.462;6.902;2023-06-04T07:14:58;3.88;;;1.80;;
23046;SDS011;11691;51.462;6.902;2023-06-04T07:17:24;3.05;;;1.73;;
23046;SDS011;11691;51.462;6.902;2023-06-04T07:19:50;4.97;;;1.65;;
23046;SDS011;11691;51.462;6.902;2023-06-04T07:22:16;3.58;;;1.58;;
23046;SDS011;11691;51.462;6.902;2023-06-04T07:24:42;4.40;;;1.52;;
23046;SDS011;11691;51.462;6.902;2023-06-04T07:27:12;3.67;;;1.80;;
23046;SDS011;11691;51.462;6.902;2023-06-04T07:29:38;2.90;;;1.70;;
23046;SDS011;11691;51.462;6.902;2023-06-04T07:32:04;3.63;;;1.30;;
23046;SDS011;11691;51.462;6.902;2023-06-04T07:34:31;3.85;;;1.40;;
23046;SDS011;11691;51.462;6.902;2023-06-04T07:36:57;3.25;;;1.70;;
23046;SDS011;11691;51.462;6.902;2023-06-04T07:39:23;2.80;;;1.50;;
23046;SDS011;11691;51.462;6.902;2023-06-04T07:41:49;3.60;;;1.50;;
23046;SDS011;11691;51.462;6.902;2023-06-04T07:44:15;1.85;;;1.50;;
23046;SDS011;11691;51.462;6.902;2023-06-04T07:46:41;3.95;;;1.65;;
23046;SDS011;11691;51.462;6.902;2023-06-04T07:49:08;2.17;;;1.60;;
23046;SDS011;11691;51.462;6.902;2023-06-04T07:51:34;2.45;;;1.40;;
23046;SDS011;11691;51.462;6.902;2023-06-04T07:54:00;3.20;;;1.58;;
23046;SDS011;11691;51.462;6.902;2023-06-04T07:56:27;3.00;;;1.50;;
23046;SDS011;11691;51.462;6.902;2023-06-04T07:58:53;2.88;;;1.40;;
23046;SDS011;11691;51.462;6.902;2023-06-04T08:01:19;4.72;;;1.67;;
23046;SDS011;11691;51.462;6.902;2023-06-04T08:03:45;2.38;;;1.50;;
23046;SDS011;11691;51.462;6.902;2023-06-04T08:06:11;2.30;;;1.33;;
23046;SDS011;11691;51.462;6.902;2023-06-04T08:08:41;6.90;;;1.92;;
23046;SDS011;11691;51.462;6.902;2023-06-04T08:11:07;2.28;;;1.50;;
23046;SDS011;11691;51.462;6.902;2023-06-04T08:13:33;3.25;;;1.38;;
23046;SDS011;11691;51.462;6.902;2023-06-04T08:15:59;2.67;;;1.70;;
23046;SDS011;11691;51.462;6.902;2023-06-04T08:18:25;2.08;;;1.40;;
23046;SDS011;11691;51.462;6.902;2023-06-04T08:20:51;3.13;;;1.25;;
23046;SDS011;11691;51.462;6.902;2023-06-04T08:23:17;2.42;;;1.25;;
23046;SDS011;11691;51.462;6.902;2023-06-04T08:25:43;2.50;;;1.27;;
23046;SDS011;11691;51.462;6.902;2023-06-04T08:28:10;1.83;;;1.30;;
23046;SDS011;11691;51.462;6.902;2023-06-04T08:30:35;2.35;;;1.40;;
23046;SDS011;11691;51.462;6.902;2023-06-04T08:33:02;2.20;;;1.42;;
23046;SDS011;11691;51.462;6.902;2023-06-04T08:35:28;2.88;;;1.27;;
23046;SDS011;11691;51.462;6.902;2023-06-04T08:37:54;2.83;;;1.60;;
23046;SDS011;11691;51.462;6.902;2023-06-04T08:40:20;2.83;;;1.60;;
23046;SDS011;11691;51.462;6.902;2023-06-04T08:42:47;3.67;;;1.70;;
23046;SDS011;11691;51.462;6.902;2023-06-04T08:45:13;3.30;;;1.33;;
23046;SDS011;11691;51.462;6.902;2023-06-04T08:47:43;1.90;;;1.45;;
23046;SDS011;11691;51.462;6.902;2023-06-04T08:50:14;3.10;;;1.63;;
23046;SDS011;11691;51.462;6.902;2023-06-04T08:52:42;3.88;;;1.60;;
23046;SDS011;11691;51.462;6.902;2023-06-04T08:55:08;2.03;;;1.60;;
23046;SDS011;11691;51.462;6.902;2023-06-04T08:57:34;2.40;;;1.27;;
23046;SDS011;11691;51.462;6.902;2023-06-04T09:00:01;3.60;;;1.63;;
23046;SDS011;11691;51.462;6.902;2023-06-04T09:02:29;2.83;;;1.30;;
23046;SDS011;11691;51.462;6.902;2023-06-04T09:04:55;5.68;;;1.60;;
23046;SDS011;11691;51.462;6.902;2023-06-04T09:07:21;6.15;;;1.70;;
23046;SDS011;11691;51.462;6.902;2023-06-04T09:09:49;3.83;;;2.10;;
23046;SDS011;11691;51.462;6.902;2023-06-04T09:12:17;3.15;;;2.00;;
23046;SDS011;11691;51.462;6.902;2023-06-04T09:14:47;2.70;;;1.70;;
23046;SDS011;11691;51.462;6.902;2023-06-04T09:17:15;3.45;;;1.60;;
23046;SDS011;11691;51.462;6.902;2023-06-04T09:19:41;2.25;;;1.75;;
23046;SDS011;11691;51.462;6.902;2023-06-04T09:22:07;4.75;;;2.20;;
23046;SDS011;11691;51.462;6.902;2023-06-04T09:24:43;3.78;;;3.40;;
23046;SDS011;11691;51.462;6.902;2023-06-04T09:27:13;2.83;;;1.50;;
23046;SDS011;11691;51.462;6.902;2023-06-04T09:29:40;4.18;;;1.40;;
23046;SDS011;11691;51.462;6.902;2023-06-04T09:32:14;3.72;;;1.63;;
23046;SDS011;11691;51.462;6.902;2023-06-04T09:34:45;3.63;;;1.60;;
23046;SDS011;11691;51.462;6.902;2023-06-04T09:37:14;2.65;;;1.30;;
23046;SDS011;11691;51.462;6.902;2023-06-04T09:39:43;1.30;;;1.10;;
23046;SDS011;11691;51.462;6.902;2023-06-04T09:42:09;4.60;;;1.42;;
23046;SDS011;11691;51.462;6.902;2023-06-04T09:44:42;3.45;;;1.40;;
23046;SDS011;11691;51.462;6.902;2023-06-04T09:47:12;3.08;;;1.50;;
23046;SDS011;11691;51.462;6.902;2023-06-04T09:49:47;3.15;;;1.17;;
23046;SDS011;11691;51.462;6.902;2023-06-04T09:52:16;1.85;;;1.10;;
23046;SDS011;11691;51.462;6.902;2023-06-04T09:54:42;1.65;;;0.85;;
23046;SDS011;11691;51.462;6.902;2023-06-04T09:57:15;5.00;;;1.45;;
23046;SDS011;11691;51.462;6.902;2023-06-04T09:59:42;3.05;;;1.35;;
23046;SDS011;11691;51.462;6.902;2023-06-04T10:02:11;3.45;;;1.52;;
23046;SDS011;11691;51.462;6.902;2023-06-04T10:04:39;2.22;;;1.20;;
23046;SDS011;11691;51.462;6.902;2023-06-04T10:07:08;1.88;;;1.10;;
23046;SDS011;11691;51.462;6.902;2023-06-04T10:09:35;6.95;;;1.00;;
23046;SDS011;11691;51.462;6.902;2023-06-04T10:12:10;2.92;;;1.20;;
23046;SDS011;11691;51.462;6.902;2023-06-04T10:14:41;1.20;;;1.00;;
23046;SDS011;11691;51.462;6.902;2023-06-04T10:17:07;2.53;;;1.17;;
23046;SDS011;11691;51.462;6.902;2023-06-04T10:19:34;2.13;;;1.40;;
23046;SDS011;11691;51.462;6.902;2023-06-04T10:22:06;2.35;;;1.60;;
23046;SDS011;11691;51.462;6.902;2023-06-04T10:24:34;4.30;;;1.58;;
23046;SDS011;11691;51.462;6.902;2023-06-04T10:27:00;4.03;;;1.55;;
23046;SDS011;11691;51.462;6.902;2023-06-04T10:29:26;1.70;;;1.20;;
23046;SDS011;11691;51.462;6.902;2023-06-04T10:31:55;2.15;;;1.17;;
23046;SDS011;11691;51.462;6.902;2023-06-04T10:34:21;3.47;;;1.42;;
23046;SDS011;11691;51.462;6.902;2023-06-04T10:36:47;2.55;;;1.40;;
23046;SDS011;11691;51.462;6.902;2023-06-04T10:39:13;4.47;;;1.55;;
23046;SDS011;11691;51.462;6.902;2023-06-04T10:41:57;3.00;;;1.50;;
23046;SDS011;11691;51.462;6.902;2023-06-04T10:44:23;1.80;;;1.50;;
23046;SDS011;11691;51.462;6.902;2023-06-04T10:46:49;4.63;;;1.38;;
23046;SDS011;11691;51.462;6.902;2023-06-04T10:49:25;5.07;;;1.60;;
23046;SDS011;11691;51.462;6.902;2023-06-04T10:51:51;3.22;;;1.67;;
23046;SDS011;11691;51.462;6.902;2023-06-04T10:54:23;3.67;;;1.80;;
23046;SDS011;11691;51.462;6.902;2023-06-04T10:56:52;4.15;;;2.03;;
23046;SDS011;11691;51.462;6.902;2023-06-04T10:59:18;3.15;;;1.63;;
23046;SDS011;11691;51.462;6.902;2023-06-04T11:01:44;3.28;;;1.33;;
23046;SDS011;11691;51.462;6.902;2023-06-04T11:04:21;3.58;;;2.00;;
23046;SDS011;11691;51.462;6.902;2023-06-04T11:06:47;3.83;;;1.88;;
23046;SDS011;11691;51.462;6.902;2023-06-04T11:09:14;2.65;;;1.50;;
23046;SDS011;11691;51.462;6.902;2023-06-04T11:11:42;4.00;;;1.80;;
23046;SDS011;11691;51.462;6.902;2023-06-04T11:14:11;3.33;;;1.42;;
23046;SDS011;11691;51.462;6.902;2023-06-04T11:16:38;3.40;;;1.73;;
23046;SDS011;11691;51.462;6.902;2023-06-04T11:19:04;5.07;;;2.15;;
23046;SDS011;11691;51.462;6.902;2023-06-04T11:21:30;2.40;;;1.50;;
23046;SDS011;11691;51.462;6.902;2023-06-04T11:24:00;3.53;;;1.92;;
23046;SDS011;11691;51.462;6.902;2023-06-04T11:26:32;2.60;;;1.85;;
23046;SDS011;11691;51.462;6.902;2023-06-04T11:29:02;2.28;;;1.55;;
23046;SDS011;11691;51.462;6.902;2023-06-04T11:31:42;5.38;;;1.90;;
23046;SDS011;11691;51.462;6.902;2023-06-04T11:34:08;4.93;;;1.98;;
23046;SDS011;11691;51.462;6.902;2023-06-04T11:36:34;3.28;;;1.50;;
23046;SDS011;11691;51.462;6.902;2023-06-04T11:39:02;1.75;;;1.23;;
23046;SDS011;11691;51.462;6.902;2023-06-04T11:41:30;4.35;;;1.73;;
23046;SDS011;11691;51.462;6.902;2023-06-04T11:43:57;2.20;;;2.00;;
23046;SDS011;11691;51.462;6.902;2023-06-04T11:46:23;2.63;;;1.67;;
23046;SDS011;11691;51.462;6.902;2023-06-04T11:48:51;6.68;;;1.73;;
23046;SDS011;11691;51.462;6.902;2023-06-04T11:51:17;3.05;;;1.48;;
23046;SDS011;11691;51.462;6.902;2023-06-04T11:53:45;2.40;;;1.55;;
23046;SDS011;11691;51.462;6.902;2023-06-04T11:56:11;2.45;;;1.48;;
23046;SDS011;11691;51.462;6.902;2023-06-04T11:58:37;5.07;;;1.40;;
23046;SDS011;11691;51.462;6.902;2023-06-04T12:01:05;2.38;;;1.40;;
23046;SDS011;11691;51.462;6.902;2023-06-04T12:03:40;2.40;;;1.50;;
23046;SDS011;11691;51.462;6.902;2023-06-04T12:06:13;2.65;;;1.60;;
23046;SDS011;11691;51.462;6.902;2023-06-04T12:13:58;3.25;;;1.75;;
23046;SDS011;11691;51.462;6.902;2023-06-04T12:16:25;4.05;;;1.52;;
23046;SDS011;11691;51.462;6.902;2023-06-04T12:18:52;2.03;;;1.50;;
23046;SDS011;11691;51.462;6.902;2023-06-04T12:21:28;3.28;;;1.67;;
23046;SDS011;11691;51.462;6.902;2023-06-04T12:24:05;3.03;;;1.60;;
23046;SDS011;11691;51.462;6.902;2023-06-04T12:26:32;2.17;;;1.67;;
23046;SDS011;11691;51.462;6.902;2023-06-04T12:29:02;5.68;;;1.65;;
23046;SDS011;11691;51.462;6.902;2023-06-04T12:31:35;2.75;;;1.80;;
23046;SDS011;11691;51.462;6.902;2023-06-04T12:34:01;2.78;;;1.38;;
23046;SDS011;11691;51.462;6.902;2023-06-04T12:36:27;3.92;;;1.83;;
23046;SDS011;11691;51.462;6.902;2023-06-04T12:38:58;3.28;;;1.75;;
23046;SDS011;11691;51.462;6.902;2023-06-04T12:41:24;1.98;;;1.60;;
23046;SDS011;11691;51.462;6.902;2023-06-04T12:43:51;1.70;;;1.60;;
23046;SDS011;11691;51.462;6.902;2023-06-04T12:46:16;2.90;;;1.67;;
23046;SDS011;11691;51.462;6.902;2023-06-04T12:48:42;3.15;;;1.95;;
23046;SDS011;11691;51.462;6.902;2023-06-04T12:51:08;5.05;;;2.00;;
23046;SDS011;11691;51.462;6.902;2023-06-04T12:53:40;3.80;;;1.77;;
23046;SDS011;11691;51.462;6.902;2023-06-04T12:56:06;2.65;;;1.92;;
23046;SDS011;11691;51.462;6.902;2023-06-04T12:58:33;3.78;;;1.67;;
23046;SDS011;11691;51.462;6.902;2023-06-04T13:00:58;3.38;;;1.67;;
23046;SDS011;11691;51.462;6.902;2023-06-04T13:03:25;5.03;;;1.92;;
23046;SDS011;11691;51.462;6.902;2023-06-04T13:05:51;6.00;;;1.70;;
23046;SDS011;11691;51.462;6.902;2023-06-04T13:08:18;3.55;;;1.65;;
23046;SDS011;11691;51.462;6.902;2023-06-04T13:10:45;3.42;;;1.65;;
23046;SDS011;11691;51.462;6.902;2023-06-04T13:13:11;2.85;;;1.73;;
23046;SDS011;11691;51.462;6.902;2023-06-04T13:15:37;2.30;;;1.83;;
23046;SDS011;11691;51.462;6.902;2023-06-04T13:18:03;4.40;;;2.00;;
23046;SDS011;11691;51.462;6.902;2023-06-04T13:20:29;2.85;;;1.90;;
23046;SDS011;11691;51.462;6.902;2023-06-04T13:22:55;2.30;;;1.75;;
23046;SDS011;11691;51.462;6.902;2023-06-04T13:25:21;4.22;;;1.70;;
23046;SDS011;11691;51.462;6.902;2023-06-04T13:27:48;2.83;;;1.83;;
23046;SDS011;11691;51.462;6.902;2023-06-04T13:30:13;4.82;;;1.63;;
23046;SDS011;11691;51.462;6.902;2023-06-04T13:32:39;2.25;;;1.27;;
23046;SDS011;11691;51.462;6.902;2023-06-04T13:35:05;6.55;;;1.70;;
23046;SDS011;11691;51.462;6.902;2023-06-04T13:37:31;5.15;;;1.92;;
23046;SDS011;11691;51.462;6.902;2023-06-04T13:39:57;3.08;;;2.03;;
23046;SDS011;11691;51.462;6.902;2023-06-04T13:42:23;2.97;;;2.00;;
23046;SDS011;11691;51.462;6.902;2023-06-04T13:44:49;4.22;;;1.90;;
23046;SDS011;11691;51.462;6.902;2023-06-04T13:47:15;3.60;;;2.05;;
23046;SDS011;11691;51.462;6.902;2023-06-04T13:49:42;2.70;;;1.52;;
23046;SDS011;11691;51.462;6.902;2023-06-04T13:52:08;3.33;;;1.85;;
23046;SDS011;11691;51.462;6.902;2023-06-04T13:54:33;5.88;;;1.52;;
23046;SDS011;11691;51.462;6.902;2023-06-04T13:57:03;4.00;;;1.60;;
23046;SDS011;11691;51.462;6.902;2023-06-04T13:59:29;4.70;;;1.60;;
23046;SDS011;11691;51.462;6.902;2023-06-04T14:01:56;1.75;;;1.40;;
23046;SDS011;11691;51.462;6.902;2023-06-04T14:04:22;3.53;;;1.60;;
23046;SDS011;11691;51.462;6.902;2023-06-04T14:06:48;3.03;;;1.80;;
23046;SDS011;11691;51.462;6.902;2023-06-04T14:09:14;3.38;;;1.38;;
23046;SDS011;11691;51.462;6.902;2023-06-04T14:11:40;3.10;;;1.50;;
23046;SDS011;11691;51.462;6.902;2023-06-04T14:14:06;3.28;;;1.50;;
23046;SDS011;11691;51.462;6.902;2023-06-04T14:16:32;2.85;;;1.60;;
23046;SDS011;11691;51.462;6.902;2023-06-04T14:18:58;3.58;;;1.63;;
23046;SDS011;11691;51.462;6.902;2023-06-04T14:21:24;4.10;;;1.58;;
23046;SDS011;11691;51.462;6.902;2023-06-04T14:23:51;3.88;;;1.30;;
23046;SDS011;11691;51.462;6.902;2023-06-04T14:26:17;2.70;;;1.33;;
23046;SDS011;11691;51.462;6.902;2023-06-04T14:28:43;1.83;;;1.42;;
23046;SDS011;11691;51.462;6.902;2023-06-04T14:31:09;2.38;;;1.55;;
23046;SDS011;11691;51.462;6.902;2023-06-04T14:33:35;2.08;;;1.60;;
23046;SDS011;11691;51.462;6.902;2023-06-04T14:36:02;2.65;;;1.38;;
23046;SDS011;11691;51.462;6.902;2023-06-04T14:38:28;2.20;;;1.50;;
23046;SDS011;11691;51.462;6.902;2023-06-04T14:40:54;2.75;;;2.03;;
23046;SDS011;11691;51.462;6.902;2023-06-04T14:43:21;5.50;;;2.42;;
23046;SDS011;11691;51.462;6.902;2023-06-04T14:45:47;3.15;;;1.40;;
23046;SDS011;11691;51.462;6.902;2023-06-04T14:48:13;2.13;;;1.60;;
23046;SDS011;11691;51.462;6.902;2023-06-04T14:50:38;3.05;;;1.65;;
23046;SDS011;11691;51.462;6.902;2023-06-04T14:53:05;3.08;;;1.55;;
23046;SDS011;11691;51.462;6.902;2023-06-04T14:55:34;5.20;;;1.70;;
23046;SDS011;11691;51.462;6.902;2023-06-04T14:58:00;2.83;;;1.60;;
23046;SDS011;11691;51.462;6.902;2023-06-04T15:00:28;2.80;;;1.60;;
23046;SDS011;11691;51.462;6.902;2023-06-04T15:02:53;4.82;;;1.90;;